Time;durP1;ratioP1;P1;durP2;ratioP2;P2;SDS_P1;SDS_P2;PMS_P1;PMS_P2;Temp;Humidity;BMP_temperature;BMP_pressure;BME280_temperature;BME280_humidity;BME280_pressure;Samples;Min_cycle;Max_cycle;Signal;HPM_P1;HPM_P2
2020/12/02 00:01:16;;;;;;;106.88;39.95;;;4.90;99.90;;;;;;5048456;28;20037;-83
2020/12/02 00:03:49;;;;;;;114.90;39.42;;;4.90;99.90;;;;;;5048223;28;20029;-83
2020/12/02 00:06:15;;;;;;;104.40;38.58;;;4.80;99.90;;;;;;5019187;28;20051;-83
2020/12/02 00:08:47;;;;;;;108.22;39.20;;;4.80;99.90;;;;;;5026537;28;20581;-82
2020/12/02 00:11:14;;;;;;;116.80;41.40;;;4.80;99.90;;;;;;5019004;28;20602;-82
2020/12/02 00:13:43;;;;;;;110.40;40.97;;;4.80;99.90;;;;;;5015737;28;20025;-82
2020/12/02 00:16:14;;;;;;;109.40;42.42;;;4.80;99.90;;;;;;5035739;28;20500;-82
2020/12/02 00:18:40;;;;;;;119.20;43.92;;;4.80;99.90;;;;;;5040591;28;20040;-82
2020/12/02 00:21:07;;;;;;;124.18;41.03;;;4.80;99.90;;;;;;5034210;28;20152;-81
2020/12/02 00:23:33;;;;;;;118.22;40.75;;;4.70;99.90;;;;;;5026157;28;20474;-81
2020/12/02 00:25:59;;;;;;;96.72;34.45;;;4.70;99.90;;;;;;5025012;28;20033;-81
2020/12/02 00:28:25;;;;;;;127.95;45.25;;;4.70;99.90;;;;;;5029710;28;20025;-81
2020/12/02 00:30:51;;;;;;;130.57;40.88;;;4.70;99.90;;;;;;5047930;28;20385;-81
2020/12/02 00:33:21;;;;;;;126.75;44.13;;;4.70;99.90;;;;;;5085968;28;20038;-81
2020/12/02 00:35:47;;;;;;;125.70;42.38;;;4.70;99.90;;;;;;5072439;28;20166;-82
2020/12/02 00:38:15;;;;;;;132.88;46.70;;;4.70;99.90;;;;;;5073612;28;20114;-82
2020/12/02 00:40:44;;;;;;;128.82;43.67;;;4.80;99.90;;;;;;5083803;28;20036;-82
2020/12/02 00:43:12;;;;;;;141.25;44.55;;;4.80;99.90;;;;;;5068963;28;20035;-82
2020/12/02 00:45:38;;;;;;;129.40;44.25;;;4.90;99.90;;;;;;5092568;28;20156;-81
2020/12/02 00:48:05;;;;;;;131.05;43.83;;;4.80;99.90;;;;;;5084022;28;20049;-82
2020/12/02 00:50:31;;;;;;;131.52;45.60;;;4.80;99.90;;;;;;5074905;28;20431;-82
2020/12/02 00:53:09;;;;;;;140.30;43.42;;;4.70;99.90;;;;;;5075544;28;20024;-81
2020/12/02 00:55:35;;;;;;;136.88;46.03;;;4.70;99.90;;;;;;5082360;28;20036;-80
2020/12/02 00:58:03;;;;;;;132.63;42.25;;;4.70;99.90;;;;;;5072816;28;20028;-81
2020/12/02 01:00:35;;;;;;;124.68;44.83;;;4.70;99.90;;;;;;5070373;28;20025;-81
2020/12/02 01:03:06;;;;;;;138.15;46.72;;;4.70;99.90;;;;;;5067548;28;20019;-82
2020/12/02 01:05:34;;;;;;;153.07;48.28;;;4.70;99.90;;;;;;5081299;28;20024;-81
2020/12/02 01:08:26;;;;;;;155.85;51.22;;;4.70;99.90;;;;;;5088471;28;20020;-81
2020/12/02 01:11:04;;;;;;;156.43;52.85;;;4.70;99.90;;;;;;5066170;28;20043;-81
2020/12/02 01:13:34;;;;;;;151.73;51.78;;;4.70;99.90;;;;;;5066156;28;20421;-82
2020/12/02 01:16:08;;;;;;;162.15;55.40;;;4.70;99.90;;;;;;5068818;28;20028;-82
2020/12/02 01:18:34;;;;;;;150.68;52.75;;;4.80;99.90;;;;;;5069580;28;20081;-81
2020/12/02 01:21:14;;;;;;;148.43;52.70;;;4.80;99.90;;;;;;5067875;28;20388;-81
2020/12/02 01:23:43;;;;;;;136.48;50.30;;;4.80;99.90;;;;;;5068173;28;20119;-81
2020/12/02 01:26:09;;;;;;;136.32;52.40;;;4.80;99.90;;;;;;5067519;28;20031;-81
2020/12/02 01:28:36;;;;;;;137.77;50.15;;;4.80;99.90;;;;;;5068337;28;20495;-82
2020/12/02 01:31:03;;;;;;;138.68;51.03;;;4.80;99.90;;;;;;5084711;28;20032;-81
2020/12/02 01:33:28;;;;;;;136.90;51.45;;;4.80;99.90;;;;;;5069892;28;20386;-82
2020/12/02 01:35:54;;;;;;;143.63;51.13;;;4.90;99.90;;;;;;5072232;28;20043;-82
2020/12/02 01:38:36;;;;;;;134.32;50.22;;;4.90;99.90;;;;;;5073155;28;20027;-82
2020/12/02 01:41:02;;;;;;;130.18;49.92;;;4.80;99.90;;;;;;5071774;28;20514;-81
2020/12/02 01:43:28;;;;;;;135.90;50.97;;;4.80;99.90;;;;;;5071763;28;20020;-81
2020/12/02 01:45:58;;;;;;;125.60;48.83;;;4.80;99.90;;;;;;5070071;28;20050;-81
2020/12/02 01:48:28;;;;;;;142.27;51.22;;;4.70;99.90;;;;;;5072339;28;20460;-82
2020/12/02 01:51:21;;;;;;;134.82;50.53;;;4.70;99.90;;;;;;5070826;28;20187;-81
2020/12/02 01:53:58;;;;;;;128.27;49.35;;;4.70;99.90;;;;;;5070567;28;20373;-81
2020/12/02 01:56:41;;;;;;;133.68;47.97;;;4.70;99.90;;;;;;5070471;28;20500;-80
2020/12/02 01:59:29;;;;;;;132.43;49.65;;;4.70;99.90;;;;;;5072043;28;20067;-81
2020/12/02 02:01:54;;;;;;;127.78;46.35;;;4.60;99.90;;;;;;5088597;28;20053;-81
2020/12/02 02:04:32;;;;;;;135.40;52.10;;;4.70;99.90;;;;;;5072507;28;20468;-81
2020/12/02 02:07:17;;;;;;;144.82;51.22;;;4.60;99.90;;;;;;5071499;28;20497;-81
2020/12/02 02:09:47;;;;;;;136.02;50.65;;;4.70;99.90;;;;;;5091319;28;20066;-81
2020/12/02 02:12:38;;;;;;;141.15;49.63;;;4.70;99.90;;;;;;5071615;28;20058;-81
2020/12/02 02:15:24;;;;;;;139.48;52.70;;;4.60;99.90;;;;;;5087794;28;20040;-82
2020/12/02 02:17:58;;;;;;;145.70;50.17;;;4.60;99.90;;;;;;5090937;28;20076;-81
2020/12/02 02:20:34;;;;;;;138.02;50.35;;;4.60;99.90;;;;;;5072665;28;20031;-81
2020/12/02 02:23:01;;;;;;;139.88;51.00;;;4.60;99.90;;;;;;5072827;28;20082;-81
2020/12/02 02:25:27;;;;;;;137.60;54.05;;;4.60;99.90;;;;;;5069349;28;20036;-82
2020/12/02 02:27:55;;;;;;;145.13;54.72;;;4.60;99.90;;;;;;5088894;28;20032;-81
2020/12/02 02:30:21;;;;;;;137.27;53.72;;;4.60;99.90;;;;;;5082378;28;20032;-81
2020/12/02 02:32:47;;;;;;;142.80;53.58;;;4.60;99.90;;;;;;5070625;28;20020;-81
2020/12/02 02:35:14;;;;;;;131.98;50.90;;;4.60;99.90;;;;;;5071462;28;20150;-81
2020/12/02 02:37:39;;;;;;;143.88;54.13;;;4.70;99.90;;;;;;5070068;28;20028;-82
2020/12/02 02:40:09;;;;;;;145.52;52.05;;;4.60;99.90;;;;;;5071996;28;20142;-82
2020/12/02 02:42:44;;;;;;;148.45;55.20;;;4.60;99.90;;;;;;5065067;28;20031;-81
2020/12/02 02:45:24;;;;;;;143.77;54.72;;;4.60;99.90;;;;;;5071945;28;20099;-81
2020/12/02 02:47:52;;;;;;;137.95;51.70;;;4.70;99.90;;;;;;5067539;28;20032;-82
2020/12/02 02:50:20;;;;;;;143.75;53.25;;;4.60;99.90;;;;;;5070338;28;20454;-81
2020/12/02 02:52:46;;;;;;;148.23;54.67;;;4.60;99.90;;;;;;5072034;28;20028;-81
2020/12/02 02:55:16;;;;;;;132.30;52.45;;;4.60;99.90;;;;;;5071237;28;20040;-81
2020/12/02 02:57:42;;;;;;;156.45;57.35;;;4.60;99.90;;;;;;5089248;28;20495;-82
2020/12/02 03:00:12;;;;;;;154.38;58.60;;;4.60;99.90;;;;;;5063899;28;20032;-82
2020/12/02 03:02:37;;;;;;;160.50;57.97;;;4.60;99.90;;;;;;5070169;28;20499;-82
2020/12/02 03:05:05;;;;;;;140.30;53.22;;;4.60;99.90;;;;;;5090203;28;20075;-82
2020/12/02 03:07:32;;;;;;;137.35;54.28;;;4.50;99.90;;;;;;5070747;28;20540;-82
2020/12/02 03:09:58;;;;;;;151.77;57.85;;;4.60;99.90;;;;;;5071803;28;20123;-82
2020/12/02 03:12:25;;;;;;;141.82;53.35;;;4.60;99.90;;;;;;5071117;28;20056;-82
2020/12/02 03:14:53;;;;;;;140.43;53.63;;;4.60;99.90;;;;;;5071226;28;20507;-82
2020/12/02 03:17:22;;;;;;;143.15;56.53;;;4.60;99.90;;;;;;5088358;28;20388;-82
2020/12/02 03:19:52;;;;;;;137.70;54.40;;;4.60;99.90;;;;;;5072335;28;20039;-81
2020/12/02 03:22:22;;;;;;;149.77;54.20;;;4.60;99.90;;;;;;5070973;28;20050;-82
2020/12/02 03:24:49;;;;;;;150.60;56.50;;;4.60;99.90;;;;;;5069868;28;20500;-82
2020/12/02 03:27:14;;;;;;;142.68;58.35;;;4.60;99.90;;;;;;5064140;28;20054;-81
2020/12/02 03:29:40;;;;;;;147.63;58.15;;;4.60;99.90;;;;;;5058328;28;20544;-82
2020/12/02 03:32:05;;;;;;;143.43;56.65;;;4.50;99.90;;;;;;5068353;28;20071;-81
2020/12/02 03:34:31;;;;;;;147.02;57.88;;;4.50;99.90;;;;;;5060598;28;20047;-82
2020/12/02 03:36:56;;;;;;;151.57;61.70;;;4.50;99.90;;;;;;5078477;28;20051;-82
2020/12/02 03:39:22;;;;;;;137.73;57.13;;;4.60;99.90;;;;;;5051983;28;20107;-81
2020/12/02 03:41:48;;;;;;;139.48;51.65;;;4.50;99.90;;;;;;5051459;28;20096;-81
2020/12/02 03:44:13;;;;;;;146.27;59.72;;;4.40;99.90;;;;;;5070689;28;20035;-82
2020/12/02 03:46:39;;;;;;;137.82;55.85;;;4.50;99.90;;;;;;5063374;28;20049;-82
2020/12/02 03:49:06;;;;;;;144.00;56.95;;;4.50;99.90;;;;;;5077273;28;20027;-82
2020/12/02 03:51:32;;;;;;;159.13;60.13;;;4.50;99.90;;;;;;5068615;28;20158;-82
2020/12/02 03:53:58;;;;;;;138.70;57.70;;;4.60;99.90;;;;;;5053466;28;20416;-82
2020/12/02 03:56:25;;;;;;;147.82;59.72;;;4.50;99.90;;;;;;5054562;28;20028;-82
2020/12/02 03:58:50;;;;;;;144.88;60.10;;;4.50;99.90;;;;;;5060521;28;20036;-82
2020/12/02 04:01:17;;;;;;;147.55;60.35;;;4.50;99.90;;;;;;5058664;28;20023;-82
2020/12/02 04:03:42;;;;;;;145.65;57.38;;;4.60;99.90;;;;;;5052222;28;20031;-82
2020/12/02 04:06:09;;;;;;;148.98;61.20;;;4.60;99.90;;;;;;5062147;28;20477;-82
2020/12/02 04:08:39;;;;;;;145.07;58.38;;;4.50;99.90;;;;;;5065033;28;20026;-82
2020/12/02 04:11:06;;;;;;;133.18;55.03;;;4.60;99.90;;;;;;5060495;28;20092;-82
2020/12/02 04:13:32;;;;;;;138.48;57.20;;;4.60;99.90;;;;;;5069425;28;20031;-82
2020/12/02 04:15:58;;;;;;;143.20;57.53;;;4.50;99.90;;;;;;5067656;28;20507;-82
2020/12/02 04:18:25;;;;;;;130.82;54.90;;;4.60;99.90;;;;;;5056324;28;20037;-81
2020/12/02 04:20:50;;;;;;;152.27;57.55;;;4.50;99.90;;;;;;5052531;28;20035;-82
2020/12/02 04:23:16;;;;;;;148.82;59.05;;;4.40;99.90;;;;;;5063755;28;20372;-82
2020/12/02 04:25:42;;;;;;;143.02;61.10;;;4.40;99.90;;;;;;5068405;28;20459;-82
2020/12/02 04:28:08;;;;;;;138.05;57.25;;;4.40;99.90;;;;;;5069061;28;20028;-82
2020/12/02 04:30:33;;;;;;;138.45;58.45;;;4.50;99.90;;;;;;5069346;28;20562;-82
2020/12/02 04:32:59;;;;;;;138.95;57.97;;;4.50;99.90;;;;;;5068802;28;20036;-82
2020/12/02 04:35:24;;;;;;;136.27;54.58;;;4.50;99.90;;;;;;5089057;28;20058;-82
2020/12/02 04:37:50;;;;;;;149.77;58.38;;;4.40;99.90;;;;;;5069603;28;20035;-81
2020/12/02 04:40:29;;;;;;;140.85;56.85;;;4.50;99.90;;;;;;5066438;28;20047;-82
2020/12/02 04:43:29;;;;;;;133.32;53.35;;;4.50;99.90;;;;;;5065151;28;20024;-82
2020/12/02 04:45:55;;;;;;;123.53;53.92;;;4.50;99.90;;;;;;5068221;28;20031;-80
2020/12/02 04:48:26;;;;;;;129.63;54.40;;;4.50;99.90;;;;;;5065802;28;20035;-82
2020/12/02 04:50:58;;;;;;;128.73;53.05;;;4.50;99.90;;;;;;5081899;28;20036;-81
2020/12/02 04:53:24;;;;;;;129.52;54.88;;;4.60;99.90;;;;;;5069598;28;20068;-82
2020/12/02 04:55:54;;;;;;;139.90;55.88;;;4.70;99.90;;;;;;5069821;28;20032;-82
2020/12/02 04:58:36;;;;;;;127.97;54.70;;;4.60;99.90;;;;;;5067383;28;20378;-82
2020/12/02 05:01:29;;;;;;;130.77;54.97;;;4.60;99.90;;;;;;5082126;28;20456;-82
2020/12/02 05:04:01;;;;;;;116.93;50.72;;;4.60;99.90;;;;;;5060410;28;20052;-82
2020/12/02 05:06:49;;;;;;;127.43;54.97;;;4.50;99.90;;;;;;5069143;28;20040;-82
2020/12/02 05:09:21;;;;;;;126.15;51.30;;;4.60;99.90;;;;;;5072934;28;20468;-82
2020/12/02 05:12:00;;;;;;;116.68;52.67;;;4.60;99.90;;;;;;5072941;28;20118;-82
2020/12/02 05:14:46;;;;;;;120.47;53.15;;;4.60;99.90;;;;;;5072908;28;20046;-82
2020/12/02 05:17:24;;;;;;;120.38;52.53;;;4.60;99.90;;;;;;5063938;28;20431;-82
2020/12/02 05:20:12;;;;;;;118.07;51.90;;;4.70;99.90;;;;;;5073476;28;20315;-82
2020/12/02 05:22:41;;;;;;;109.80;51.25;;;4.70;99.90;;;;;;5072369;28;20118;-82
2020/12/02 05:25:18;;;;;;;107.95;49.60;;;4.70;99.90;;;;;;5070814;28;20051;-82
2020/12/02 05:27:49;;;;;;;126.63;52.88;;;4.60;99.90;;;;;;5072087;28;20024;-82
2020/12/02 05:30:20;;;;;;;133.18;52.03;;;4.60;99.90;;;;;;5086298;28;20048;-82
2020/12/02 05:33:04;;;;;;;;;;;4.60;99.90;;;;;;5068100;28;20036;-81
2020/12/02 05:35:32;;;;;;;117.70;50.35;;;4.60;99.90;;;;;;5088454;28;20050;-82
2020/12/02 05:38:00;;;;;;;122.70;55.63;;;4.60;99.90;;;;;;5071296;28;20149;-83
2020/12/02 05:40:27;;;;;;;111.35;49.67;;;4.60;99.90;;;;;;5071118;28;20056;-83
2020/12/02 05:43:00;;;;;;;112.32;51.53;;;4.60;99.90;;;;;;5089122;28;20081;-81
2020/12/02 05:45:40;;;;;;;114.70;51.20;;;4.60;99.90;;;;;;5083644;28;20105;-82
2020/12/02 05:48:20;;;;;;;127.07;54.55;;;4.60;99.90;;;;;;5069516;28;20500;-82
2020/12/02 05:50:47;;;;;;;111.90;50.30;;;4.70;99.90;;;;;;5072013;28;20024;-83
2020/12/02 05:53:41;;;;;;;113.00;50.22;;;4.60;99.90;;;;;;5068692;28;20028;-83
2020/12/02 05:56:09;;;;;;;116.65;52.67;;;4.70;99.90;;;;;;5071507;28;20040;-82
2020/12/02 05:58:39;;;;;;;114.72;52.97;;;4.70;99.90;;;;;;5068523;28;20464;-82
2020/12/02 06:01:06;;;;;;;114.75;50.65;;;4.70;99.90;;;;;;5071574;28;20459;-82
2020/12/02 06:03:34;;;;;;;106.13;50.45;;;4.70;99.90;;;;;;5071089;28;20065;-83
2020/12/02 06:06:05;;;;;;;117.28;49.17;;;4.80;99.90;;;;;;5071102;28;20036;-83
2020/12/02 06:08:51;;;;;;;127.07;51.65;;;4.70;99.90;;;;;;5062428;28;20032;-82
2020/12/02 06:11:21;;;;;;;131.80;51.85;;;4.70;99.90;;;;;;5071899;28;20106;-82
2020/12/02 06:13:51;;;;;;;110.85;52.60;;;4.70;99.90;;;;;;5068137;28;20046;-82
2020/12/02 06:16:26;;;;;;;104.40;48.92;;;4.70;99.90;;;;;;5069862;28;20028;-82
2020/12/02 06:18:53;;;;;;;110.95;49.53;;;4.70;99.90;;;;;;5067138;28;20032;-82
2020/12/02 06:21:40;;;;;;;108.35;46.78;;;4.70;99.90;;;;;;5069044;28;20028;-82
2020/12/02 06:24:07;;;;;;;117.95;50.08;;;4.70;99.90;;;;;;5070456;28;20058;-82
2020/12/02 06:26:45;;;;;;;113.18;49.35;;;4.80;99.90;;;;;;5069584;28;20050;-82
2020/12/02 06:29:32;;;;;;;112.72;49.25;;;4.70;99.90;;;;;;5085333;28;20050;-81
2020/12/02 06:32:08;;;;;;;111.88;51.65;;;4.70;99.90;;;;;;5066797;28;20035;-81
2020/12/02 06:34:34;;;;;;;102.93;47.17;;;4.70;99.90;;;;;;5069917;28;20039;-83
2020/12/02 06:37:10;;;;;;;139.13;53.28;;;4.70;99.90;;;;;;5068552;28;20040;-82
2020/12/02 06:39:39;;;;;;;108.97;50.38;;;4.80;99.90;;;;;;5070941;28;20044;-83
2020/12/02 06:42:36;;;;;;;106.43;49.25;;;4.80;99.90;;;;;;5068434;28;20108;-82
2020/12/02 06:45:36;;;;;;;115.28;51.35;;;4.70;99.90;;;;;;5066552;28;20704;-82
2020/12/02 06:48:13;;;;;;;115.40;50.42;;;4.70;99.90;;;;;;5068104;28;20027;-82
2020/12/02 06:50:39;;;;;;;114.57;49.63;;;4.70;99.90;;;;;;5067730;28;20431;-83
2020/12/02 06:53:21;;;;;;;118.45;52.15;;;4.70;99.90;;;;;;5069937;28;20035;-82
2020/12/02 06:55:48;;;;;;;111.50;49.58;;;4.70;99.90;;;;;;5087924;28;20123;-82
2020/12/02 06:58:17;;;;;;;115.72;52.30;;;4.80;99.90;;;;;;5068593;28;20026;-83
2020/12/02 07:00:52;;;;;;;110.43;50.90;;;4.80;99.90;;;;;;5086688;28;20059;-83
2020/12/02 07:03:23;;;;;;;106.40;47.30;;;4.80;99.90;;;;;;5068610;28;20051;-83
2020/12/02 07:05:53;;;;;;;120.57;50.58;;;4.90;99.90;;;;;;5083372;28;20016;-83
2020/12/02 07:08:20;;;;;;;111.60;48.85;;;4.90;99.90;;;;;;5067893;28;20515;-83
2020/12/02 07:11:13;;;;;;;106.82;50.88;;;4.90;99.90;;;;;;5069695;28;20398;-83
2020/12/02 07:13:41;;;;;;;111.35;48.60;;;4.90;99.90;;;;;;5065120;28;20063;-83
2020/12/02 07:16:18;;;;;;;112.20;51.13;;;4.80;99.90;;;;;;5068693;28;20056;-82
2020/12/02 07:18:46;;;;;;;112.45;51.78;;;4.80;99.90;;;;;;5065388;28;20341;-83
2020/12/02 07:21:43;;;;;;;112.68;51.75;;;4.90;99.90;;;;;;5069024;28;20059;-83
2020/12/02 07:24:17;;;;;;;109.30;49.38;;;4.90;99.90;;;;;;5086056;28;20044;-82
2020/12/02 07:26:43;;;;;;;107.03;50.22;;;4.90;99.90;;;;;;5068167;28;20085;-83
2020/12/02 07:29:29;;;;;;;107.65;49.22;;;4.80;99.90;;;;;;5070099;28;20059;-83
2020/12/02 07:32:01;;;;;;;105.20;48.45;;;4.80;99.90;;;;;;5066243;28;20032;-83
2020/12/02 07:34:30;;;;;;;111.00;50.13;;;4.90;99.90;;;;;;5059624;28;20582;-82
2020/12/02 07:37:18;;;;;;;118.43;51.40;;;4.80;99.90;;;;;;5044503;28;20036;-82
2020/12/02 07:39:51;;;;;;;119.82;52.47;;;4.70;99.90;;;;;;5047302;28;20037;-82
2020/12/02 07:42:33;;;;;;;133.73;55.45;;;4.70;99.90;;;;;;5047170;28;20481;-83
2020/12/02 07:45:13;;;;;;;117.78;53.03;;;4.80;99.90;;;;;;5044278;28;20554;-83
2020/12/02 07:47:48;;;;;;;112.72;50.00;;;4.80;99.90;;;;;;5049392;28;20031;-82
2020/12/02 07:50:35;;;;;;;101.22;46.75;;;4.80;99.90;;;;;;5045040;28;20044;-82
2020/12/02 07:53:12;;;;;;;115.72;50.78;;;4.80;99.90;;;;;;5057794;28;20506;-81
2020/12/02 07:55:44;;;;;;;110.95;48.25;;;4.80;99.90;;;;;;5035775;28;20115;-82
2020/12/02 07:58:36;;;;;;;101.50;47.88;;;4.90;99.90;;;;;;5027556;28;20150;-81
2020/12/02 08:01:31;;;;;;;107.55;47.80;;;4.80;99.90;;;;;;5045745;28;20048;-82
2020/12/02 08:04:10;;;;;;;105.93;46.97;;;4.90;99.90;;;;;;5034943;28;20546;-82
2020/12/02 08:07:05;;;;;;;108.40;49.75;;;4.90;99.90;;;;;;5064055;28;20036;-82
2020/12/02 08:09:41;;;;;;;108.95;48.30;;;4.80;99.90;;;;;;5041961;28;20465;-82
2020/12/02 08:12:12;;;;;;;116.38;50.13;;;4.90;99.90;;;;;;5057389;28;20020;-82
2020/12/02 08:14:45;;;;;;;112.80;50.03;;;4.80;99.90;;;;;;5062143;28;20139;-83
2020/12/02 08:17:23;;;;;;;105.78;49.42;;;4.90;99.90;;;;;;5060608;28;20110;-83
2020/12/02 08:19:55;;;;;;;105.35;48.13;;;4.90;99.90;;;;;;5060727;28;20201;-83
2020/12/02 08:22:27;;;;;;;;;;;4.90;99.90;;;;;;5061988;28;20499;-83
2020/12/02 08:25:01;;;;;;;;;;;4.90;99.90;;;;;;5081411;28;20022;-83
2020/12/02 08:27:29;;;;;;;114.07;46.85;;;4.90;99.90;;;;;;5078129;28;20753;-82
2020/12/02 08:29:55;;;;;;;106.93;46.35;;;4.90;99.90;;;;;;5080024;28;20082;-82
2020/12/02 08:32:30;;;;;;;109.95;46.60;;;4.80;99.90;;;;;;5076057;28;20028;-82
2020/12/02 08:34:55;;;;;;;105.88;48.05;;;4.80;99.90;;;;;;5078429;28;20036;-82
2020/12/02 08:37:25;;;;;;;94.85;45.30;;;4.80;99.90;;;;;;5080078;28;20032;-81
2020/12/02 08:39:54;;;;;;;104.55;44.75;;;4.80;99.90;;;;;;5064194;28;20028;-81
2020/12/02 08:42:32;;;;;;;96.53;45.85;;;4.80;99.90;;;;;;5059280;28;20435;-81
2020/12/02 08:45:12;;;;;;;100.03;46.30;;;4.80;99.90;;;;;;5083012;28;20061;-82
2020/12/02 08:47:38;;;;;;;99.07;46.28;;;4.90;99.90;;;;;;5060382;28;20032;-81
2020/12/02 08:50:05;;;;;;;92.75;45.15;;;4.90;99.90;;;;;;5062864;28;20028;-81
2020/12/02 08:52:31;;;;;;;105.80;46.45;;;4.90;99.90;;;;;;5065149;28;20087;-82
2020/12/02 08:54:57;;;;;;;92.03;43.58;;;4.90;99.90;;;;;;5079729;28;20185;-82
2020/12/02 08:57:22;;;;;;;104.95;48.58;;;4.80;99.90;;;;;;5058860;28;20298;-81
2020/12/02 08:59:48;;;;;;;93.13;45.80;;;4.80;99.90;;;;;;5062449;28;20076;-82
2020/12/02 09:02:16;;;;;;;97.10;45.55;;;4.90;99.90;;;;;;5062444;28;20032;-82
2020/12/02 09:04:45;;;;;;;94.47;43.80;;;4.90;99.90;;;;;;5057890;28;20032;-81
2020/12/02 09:07:13;;;;;;;93.70;43.80;;;4.90;99.90;;;;;;5080356;28;20473;-81
2020/12/02 09:09:39;;;;;;;90.85;42.50;;;4.90;99.90;;;;;;5062977;28;20040;-82
2020/12/02 09:12:05;;;;;;;87.28;42.03;;;4.80;99.90;;;;;;5062454;28;20034;-81
2020/12/02 09:14:31;;;;;;;99.22;45.05;;;4.90;99.90;;;;;;5060758;28;20523;-81
2020/12/02 09:16:56;;;;;;;92.72;43.00;;;4.80;99.90;;;;;;5056917;28;20035;-82
2020/12/02 09:19:22;;;;;;;90.60;42.17;;;4.90;99.90;;;;;;5059683;28;20027;-82
2020/12/02 09:21:48;;;;;;;90.38;43.03;;;4.80;99.90;;;;;;5053690;28;20055;-82
2020/12/02 09:24:15;;;;;;;84.03;42.78;;;4.80;99.90;;;;;;5061026;28;20071;-82
2020/12/02 09:26:41;;;;;;;91.80;41.78;;;4.70;99.90;;;;;;5037746;28;20068;-83
2020/12/02 09:29:12;;;;;;;89.93;40.67;;;4.80;99.90;;;;;;5022440;28;20029;-83
2020/12/02 09:31:38;;;;;;;91.50;43.47;;;4.90;99.90;;;;;;4997533;28;20917;-82
2020/12/02 09:34:06;;;;;;;89.47;41.88;;;5.00;99.90;;;;;;5001275;28;20045;-83
2020/12/02 09:36:33;;;;;;;96.78;45.28;;;5.00;99.90;;;;;;5000779;28;20046;-83
2020/12/02 09:38:59;;;;;;;91.75;42.33;;;5.00;99.90;;;;;;5001628;28;20034;-83
2020/12/02 09:41:31;;;;;;;93.72;43.05;;;5.00;99.90;;;;;;5000852;28;20079;-83
2020/12/02 09:44:31;;;;;;;91.07;43.30;;;5.00;99.90;;;;;;5000504;28;20025;-83
2020/12/02 09:47:02;;;;;;;101.85;45.38;;;5.00;99.90;;;;;;4997005;28;20046;-83
2020/12/02 09:49:29;;;;;;;;;;;5.10;99.90;;;;;;4998270;28;20068;-83
2020/12/02 09:52:19;;;;;;;86.88;41.28;;;5.00;99.90;;;;;;4998999;28;20130;-83
2020/12/02 09:54:46;;;;;;;97.40;42.95;;;5.00;99.90;;;;;;4998596;28;20041;-82
2020/12/02 09:57:19;;;;;;;92.32;42.95;;;5.00;99.90;;;;;;5001101;28;20133;-82
2020/12/02 09:59:45;;;;;;;93.82;44.25;;;5.00;99.90;;;;;;5018974;28;20116;-83
2020/12/02 10:02:23;;;;;;;93.82;45.42;;;5.00;99.90;;;;;;5033093;28;20537;-84
2020/12/02 10:05:07;;;;;;;94.65;43.20;;;5.00;99.90;;;;;;5062842;28;20031;-82
2020/12/02 10:07:42;;;;;;;91.93;44.45;;;4.90;99.90;;;;;;5058030;28;20040;-83
2020/12/02 10:10:31;;;;;;;94.32;43.67;;;4.90;99.90;;;;;;5080450;28;20042;-82
2020/12/02 10:13:47;;;;;;;95.80;42.63;;;4.90;99.90;;;;;;5054296;28;20043;-83
2020/12/02 10:16:45;;;;;;;106.43;47.15;;;5.00;99.90;;;;;;4980750;28;20033;-84
2020/12/02 10:19:29;;;;;;;93.60;41.38;;;4.80;99.90;;;;;;4980334;28;20083;-83
2020/12/02 10:22:24;;;;;;;99.20;44.88;;;4.80;99.90;;;;;;4979003;28;20202;-83
2020/12/02 10:25:06;;;;;;;100.85;45.00;;;4.80;99.90;;;;;;4980331;28;20084;-84
2020/12/02 10:27:40;;;;;;;;;;;4.90;99.90;;;;;;4995622;28;20054;-81
2020/12/02 10:30:17;;;;;;;99.20;45.85;;;5.00;99.90;;;;;;4996279;28;19941;-83
2020/12/02 10:33:22;;;;;;;92.53;44.08;;;5.00;99.90;;;;;;4994705;28;20069;-82
2020/12/02 10:35:49;;;;;;;98.40;45.33;;;4.90;99.90;;;;;;4996899;28;20046;-83
2020/12/02 10:38:28;;;;;;;95.97;45.17;;;4.90;99.90;;;;;;4983797;28;20068;-83
2020/12/02 10:41:02;;;;;;;94.65;43.88;;;4.90;99.90;;;;;;4979070;28;20450;-83
2020/12/02 10:43:59;;;;;;;102.75;48.10;;;4.90;99.90;;;;;;4980599;28;20427;-82
2020/12/02 10:46:57;;;;;;;95.47;43.22;;;5.00;99.90;;;;;;4951086;28;20048;-82
2020/12/02 10:49:30;;;;;;;94.13;45.25;;;5.00;99.90;;;;;;4983295;28;20036;-83
2020/12/02 10:51:58;;;;;;;93.85;42.75;;;5.00;99.90;;;;;;4979425;28;20029;-82
2020/12/02 10:54:35;;;;;;;90.28;42.08;;;4.90;99.90;;;;;;4997778;28;20041;-82
2020/12/02 10:57:05;;;;;;;92.80;42.80;;;4.90;99.90;;;;;;4981540;28;20056;-81
2020/12/02 10:59:31;;;;;;;105.13;43.35;;;4.80;99.90;;;;;;4982957;28;20029;-83
2020/12/02 11:01:57;;;;;;;97.15;42.88;;;4.90;99.90;;;;;;5000586;28;20040;-84
2020/12/02 11:04:23;;;;;;;96.82;45.25;;;4.80;99.90;;;;;;4997848;28;20042;-83
2020/12/02 11:07:12;;;;;;;94.82;42.92;;;4.80;99.90;;;;;;5000245;28;20056;-83
2020/12/02 11:09:53;;;;;;;97.43;44.33;;;4.70;99.90;;;;;;4990224;28;20071;-82
2020/12/02 11:12:37;;;;;;;92.93;42.95;;;4.70;99.90;;;;;;5003003;28;20112;-83
2020/12/02 11:15:25;;;;;;;93.80;43.40;;;4.80;99.90;;;;;;4994555;28;20079;-82
2020/12/02 11:18:36;;;;;;;100.82;44.08;;;4.70;99.90;;;;;;4984844;28;20037;-83
2020/12/02 11:21:28;;;;;;;89.32;42.13;;;4.80;99.90;;;;;;4959654;28;20043;-82
2020/12/02 11:24:28;;;;;;;98.53;44.90;;;4.70;99.90;;;;;;5032757;28;20045;-82
2020/12/02 11:26:54;;;;;;;87.32;40.60;;;4.70;99.90;;;;;;5018556;28;20094;-83
2020/12/02 11:29:20;;;;;;;90.68;45.40;;;4.60;99.90;;;;;;5018370;28;20148;-83
2020/12/02 11:31:58;;;;;;;107.60;48.08;;;4.60;99.90;;;;;;5037111;28;20029;-83
2020/12/02 11:34:41;;;;;;;92.95;45.38;;;4.70;99.90;;;;;;5023761;28;20845;-83
2020/12/02 11:37:11;;;;;;;107.10;50.95;;;4.80;99.90;;;;;;5027214;28;21753;-83
2020/12/02 11:39:48;;;;;;;100.82;46.72;;;4.80;99.90;;;;;;5022933;28;20510;-82
2020/12/02 11:42:28;;;;;;;97.93;47.85;;;4.80;99.90;;;;;;5019309;28;21992;-83
2020/12/02 11:45:01;;;;;;;101.13;46.45;;;4.80;99.90;;;;;;5017340;28;20041;-82
2020/12/02 11:47:58;;;;;;;98.30;47.25;;;4.80;99.90;;;;;;5015880;28;20032;-83
2020/12/02 11:50:37;;;;;;;102.95;46.65;;;4.80;99.90;;;;;;5015193;28;20738;-83
2020/12/02 11:53:37;;;;;;;100.57;47.90;;;4.80;99.90;;;;;;5031740;28;20033;-83
2020/12/02 11:56:04;;;;;;;96.50;45.17;;;4.80;99.90;;;;;;5023425;28;20099;-82
2020/12/02 11:58:31;;;;;;;98.90;45.50;;;4.70;99.90;;;;;;5047134;28;20044;-82
2020/12/02 12:01:09;;;;;;;110.18;48.22;;;4.80;99.90;;;;;;5054071;28;20059;-83
2020/12/02 12:03:50;;;;;;;101.95;48.50;;;4.80;99.90;;;;;;5058779;28;20054;-82
2020/12/02 12:06:21;;;;;;;101.05;49.13;;;4.80;99.90;;;;;;5079846;28;20484;-83
2020/12/02 12:09:12;;;;;;;110.95;51.83;;;4.90;99.90;;;;;;5055518;28;20035;-83
2020/12/02 12:11:39;;;;;;;110.50;49.42;;;4.80;99.90;;;;;;5076583;28;20039;-82
2020/12/02 12:14:26;;;;;;;104.03;48.88;;;4.70;99.90;;;;;;5074983;28;20048;-82
2020/12/02 12:17:10;;;;;;;100.15;47.25;;;4.70;99.90;;;;;;5052207;28;20074;-82
2020/12/02 12:19:45;;;;;;;108.88;49.80;;;4.90;99.90;;;;;;5053371;28;20032;-82
2020/12/02 12:22:35;;;;;;;99.25;50.25;;;4.90;99.90;;;;;;5054648;28;20082;-83
2020/12/02 12:25:10;;;;;;;100.82;47.85;;;4.70;99.90;;;;;;5059468;28;20045;-83
2020/12/02 12:27:35;;;;;;;110.07;50.47;;;4.70;99.90;;;;;;5038044;28;20084;-82
2020/12/02 12:30:04;;;;;;;115.13;51.22;;;4.70;99.90;;;;;;5040149;28;20052;-82
2020/12/02 12:32:36;;;;;;;96.10;46.75;;;4.70;99.90;;;;;;5038951;28;20020;-83
2020/12/02 12:35:10;;;;;;;110.63;51.92;;;4.80;99.90;;;;;;5038999;28;20074;-83
2020/12/02 12:37:44;;;;;;;107.30;48.88;;;4.80;99.90;;;;;;5035720;28;20060;-83
2020/12/02 12:40:32;;;;;;;101.72;48.80;;;4.70;99.90;;;;;;5040294;28;20119;-81
2020/12/02 12:42:58;;;;;;;101.55;48.05;;;4.60;99.90;;;;;;5037707;28;20429;-82
2020/12/02 12:45:38;;;;;;;108.97;52.00;;;4.60;99.90;;;;;;5015628;28;20037;-83
2020/12/02 12:48:06;;;;;;;111.20;51.28;;;4.50;99.90;;;;;;5000589;28;20088;-82
2020/12/02 12:50:32;;;;;;;109.53;49.97;;;4.60;99.90;;;;;;5011036;28;20042;-82
2020/12/02 12:53:03;;;;;;;105.90;51.55;;;4.60;99.90;;;;;;4999919;28;20059;-83
2020/12/02 12:55:29;;;;;;;143.05;62.33;;;4.70;99.90;;;;;;4998131;28;20546;-83
2020/12/02 12:58:00;;;;;;;114.28;52.10;;;4.60;99.90;;;;;;5001128;28;20045;-84
2020/12/02 13:00:26;;;;;;;111.43;50.20;;;4.70;99.90;;;;;;4997006;28;20482;-84
2020/12/02 13:03:16;;;;;;;121.88;53.72;;;4.70;99.90;;;;;;5009030;28;20085;-83